createdAt,value
2018-08-20T00:01:37.520Z,20.51
2018-08-20T00:04:07.894Z,20.51
2018-08-20T00:06:49.250Z,20.55
2018-08-20T00:09:18.399Z,20.60
2018-08-20T00:11:47.367Z,20.62
2018-08-20T00:14:18.788Z,20.60
2018-08-20T00:16:47.288Z,20.52
2018-08-20T00:19:15.726Z,20.53
2018-08-20T00:21:45.097Z,20.54
2018-08-20T00:24:13.553Z,20.53
2018-08-20T00:26:41.949Z,20.49
2018-08-20T00:29:10.421Z,20.41
2018-08-20T00:31:38.848Z,20.48
2018-08-20T00:34:07.287Z,20.50
2018-08-20T00:36:35.792Z,20.41
2018-08-20T00:39:06.092Z,20.33
2018-08-20T00:41:34.492Z,20.30
2018-08-20T00:44:04.478Z,20.31
2018-08-20T00:46:32.905Z,20.33
2018-08-20T00:49:01.519Z,20.32
2018-08-20T00:51:29.946Z,20.32
2018-08-20T00:53:58.389Z,20.35
2018-08-20T00:56:26.756Z,20.34
2018-08-20T00:58:55.520Z,20.36
2018-08-20T01:01:23.924Z,20.38
2018-08-20T01:03:52.432Z,20.38
2018-08-20T01:06:20.844Z,20.40
2018-08-20T01:08:49.288Z,20.44
2018-08-20T01:11:17.702Z,20.48
2018-08-20T01:13:46.201Z,20.51
2018-08-20T01:16:14.593Z,20.53
2018-08-20T01:18:43.049Z,20.54
2018-08-20T01:21:11.649Z,20.52
2018-08-20T01:23:40.049Z,20.52
2018-08-20T01:26:08.549Z,20.43
2018-08-20T01:28:36.975Z,20.42
2018-08-20T01:31:05.888Z,20.41
2018-08-20T01:33:34.339Z,20.39
2018-08-20T01:36:02.759Z,20.36
2018-08-20T01:38:31.162Z,20.34
2018-08-20T01:40:59.662Z,20.38
2018-08-20T01:43:28.108Z,20.40
2018-08-20T01:45:56.628Z,20.39
2018-08-20T01:48:25.053Z,20.39
2018-08-20T01:50:53.429Z,20.36
2018-08-20T01:53:21.881Z,20.31
2018-08-20T01:55:50.299Z,20.31
2018-08-20T01:58:18.711Z,20.26
2018-08-20T02:00:47.152Z,20.25
2018-08-20T02:03:15.616Z,20.25
2018-08-20T02:05:44.393Z,20.23
2018-08-20T02:08:12.831Z,20.20
2018-08-20T02:10:41.313Z,20.20
2018-08-20T02:13:10.029Z,20.17
2018-08-20T02:15:39.296Z,20.12
2018-08-20T02:18:09.789Z,20.07
2018-08-20T02:20:38.262Z,20.04
2018-08-20T02:23:06.912Z,20.04
2018-08-20T02:25:35.480Z,20.02
2018-08-20T02:28:04.036Z,20.00
2018-08-20T02:30:32.456Z,19.96
2018-08-20T02:33:00.862Z,19.93
2018-08-20T02:35:29.276Z,19.92
2018-08-20T02:37:57.779Z,19.93
2018-08-20T02:40:26.279Z,19.90
2018-08-20T02:42:54.732Z,19.89
2018-08-20T02:45:23.183Z,19.86
2018-08-20T02:47:51.644Z,19.81
2018-08-20T02:50:20.173Z,19.80
2018-08-20T02:52:48.576Z,19.74
2018-08-20T02:55:17.032Z,19.73
2018-08-20T02:57:45.719Z,19.73
2018-08-20T03:00:14.856Z,19.69
2018-08-20T03:02:43.314Z,19.65
2018-08-20T03:05:12.860Z,19.63
2018-08-20T03:07:41.544Z,19.66
2018-08-20T03:10:11.742Z,19.64
2018-08-20T03:12:40.256Z,19.62
2018-08-20T03:15:09.833Z,19.60
2018-08-20T03:17:38.204Z,19.60
2018-08-20T03:20:06.823Z,19.59
2018-08-20T03:22:35.323Z,19.60
2018-08-20T03:25:03.828Z,19.57
2018-08-20T03:27:32.239Z,19.41
2018-08-20T03:30:00.623Z,19.52
2018-08-20T03:32:29.043Z,19.47
2018-08-20T03:34:58.022Z,19.57
2018-08-20T03:37:26.492Z,19.58
2018-08-20T03:39:54.934Z,19.61
2018-08-20T03:42:23.364Z,19.61
2018-08-20T03:44:51.824Z,19.57
2018-08-20T03:47:20.230Z,19.49
2018-08-20T03:49:48.934Z,19.42
2018-08-20T03:52:17.416Z,19.40
2018-08-20T03:54:45.848Z,19.43
2018-08-20T03:57:14.266Z,19.39
2018-08-20T03:59:42.733Z,19.42
2018-08-20T04:02:11.196Z,19.33
2018-08-20T04:04:39.603Z,19.30
2018-08-20T04:07:08.969Z,19.32
2018-08-20T04:09:37.390Z,19.32
2018-08-20T04:12:05.798Z,19.28
2018-08-20T04:14:34.219Z,19.34
2018-08-20T04:17:02.652Z,19.35
2018-08-20T04:19:31.087Z,19.39
2018-08-20T04:21:59.851Z,19.37
2018-08-20T04:24:28.310Z,19.35
2018-08-20T04:26:56.740Z,19.37
2018-08-20T04:29:25.154Z,19.39
2018-08-20T04:31:53.562Z,19.40
2018-08-20T04:34:21.940Z,19.40
2018-08-20T04:36:51.297Z,19.40
2018-08-20T04:39:19.832Z,19.35
2018-08-20T04:41:48.261Z,19.34
2018-08-20T04:44:16.732Z,19.32
2018-08-20T04:46:45.147Z,19.33
2018-08-20T04:49:13.611Z,19.36
2018-08-20T04:51:42.076Z,19.34
2018-08-20T04:54:10.493Z,19.34
2018-08-20T04:56:38.955Z,19.35
2018-08-20T04:59:07.401Z,19.34
2018-08-20T05:01:35.831Z,19.36
2018-08-20T05:04:05.191Z,19.37
2018-08-20T05:06:33.613Z,19.38
2018-08-20T05:09:02.002Z,19.27
2018-08-20T05:11:30.448Z,19.29
2018-08-20T05:13:58.853Z,19.32
2018-08-20T05:16:27.223Z,19.28
2018-08-20T05:18:55.700Z,19.29
2018-08-20T05:21:24.140Z,19.31
2018-08-20T05:23:53.125Z,19.36
2018-08-20T05:26:21.668Z,19.39
2018-08-20T05:28:50.041Z,19.22
2018-08-20T05:31:19.545Z,19.38
2018-08-20T05:33:47.952Z,19.40
2018-08-20T05:36:16.425Z,19.38
2018-08-20T05:38:44.821Z,19.36
2018-08-20T05:41:13.323Z,19.33
2018-08-20T05:43:41.697Z,19.35
2018-08-20T05:46:10.097Z,19.39
2018-08-20T05:48:38.588Z,19.42
2018-08-20T05:51:07.050Z,19.45
2018-08-20T05:53:35.485Z,19.38
2018-08-20T05:56:03.868Z,19.32
2018-08-20T05:58:32.314Z,19.31
2018-08-20T06:01:00.772Z,19.28
2018-08-20T06:03:29.227Z,19.22
2018-08-20T06:05:57.633Z,19.26
2018-08-20T06:08:26.064Z,19.28
2018-08-20T06:10:54.543Z,19.31
2018-08-20T06:13:23.155Z,19.34
2018-08-20T06:15:51.568Z,19.35
2018-08-20T06:18:19.971Z,19.34
2018-08-20T06:20:48.364Z,19.35
2018-08-20T06:23:18.684Z,19.33
2018-08-20T06:25:47.720Z,19.35
2018-08-20T06:28:16.513Z,19.32
2018-08-20T06:30:44.934Z,19.34
2018-08-20T06:33:13.320Z,19.35
2018-08-20T06:35:41.778Z,19.33
2018-08-20T06:38:10.207Z,19.31
2018-08-20T06:40:38.700Z,19.32
2018-08-20T06:43:07.110Z,19.28
2018-08-20T06:45:35.532Z,19.32
2018-08-20T06:48:04.068Z,19.35
2018-08-20T06:50:32.501Z,19.38
2018-08-20T06:53:00.915Z,19.36
2018-08-20T06:55:29.344Z,19.36
2018-08-20T06:57:57.772Z,19.35
2018-08-20T07:00:26.328Z,19.37
2018-08-20T07:02:54.707Z,19.35
2018-08-20T07:05:23.153Z,19.29
2018-08-20T07:07:51.571Z,19.23
2018-08-20T07:10:20.039Z,19.26
2018-08-20T07:12:48.445Z,19.28
2018-08-20T07:15:16.860Z,19.30
2018-08-20T07:17:45.466Z,19.31
2018-08-20T07:20:15.510Z,19.30
2018-08-20T07:22:44.208Z,19.30
2018-08-20T07:25:12.596Z,19.34
2018-08-20T07:27:41.024Z,19.35
2018-08-20T07:30:11.082Z,19.36
2018-08-20T07:32:39.555Z,19.37
2018-08-20T07:35:08.004Z,19.35
2018-08-20T07:37:36.438Z,19.33
2018-08-20T07:40:07.271Z,19.33
2018-08-20T07:42:35.697Z,19.31
2018-08-20T07:45:04.181Z,19.30
2018-08-20T07:47:32.635Z,19.29
2018-08-20T07:50:01.103Z,19.27
2018-08-20T07:52:29.500Z,19.29
2018-08-20T07:54:57.886Z,19.31
2018-08-20T07:57:26.313Z,19.29
2018-08-20T07:59:54.739Z,19.24
2018-08-20T08:02:23.142Z,19.26
2018-08-20T08:04:51.588Z,19.30
2018-08-20T08:07:20.104Z,19.28
2018-08-20T08:09:48.549Z,19.24
2018-08-20T08:12:17.593Z,19.23
2018-08-20T08:14:46.032Z,19.26
2018-08-20T08:17:14.460Z,19.22
2018-08-20T08:19:42.901Z,19.20
2018-08-20T08:22:11.861Z,19.17
2018-08-20T08:24:40.238Z,19.20
2018-08-20T08:27:08.780Z,19.12
2018-08-20T08:29:37.412Z,19.15
2018-08-20T08:32:05.938Z,19.19
2018-08-20T08:34:34.463Z,19.26
2018-08-20T08:37:03.075Z,19.26
2018-08-20T08:39:31.516Z,19.24
2018-08-20T08:41:59.985Z,19.23
2018-08-20T08:44:28.364Z,19.23
2018-08-20T08:46:56.821Z,19.27
2018-08-20T08:49:25.309Z,19.21
2018-08-20T08:51:53.776Z,19.24
2018-08-20T08:54:22.219Z,19.23
2018-08-20T08:56:50.663Z,19.20
2018-08-20T08:59:19.204Z,19.22
2018-08-20T09:01:47.703Z,19.29
2018-08-20T09:04:16.143Z,19.24
2018-08-20T09:06:44.574Z,19.22
2018-08-20T09:09:12.962Z,19.27
2018-08-20T09:11:41.413Z,19.22
2018-08-20T09:14:09.880Z,19.25
2018-08-20T09:16:38.349Z,19.26
2018-08-20T09:19:07.413Z,19.32
2018-08-20T09:21:35.964Z,19.37
2018-08-20T09:24:04.474Z,19.35
2018-08-20T09:26:33.109Z,19.34
2018-08-20T09:29:01.480Z,19.38
2018-08-20T09:31:29.958Z,19.34
2018-08-20T09:33:58.425Z,19.34
2018-08-20T09:36:26.855Z,19.38
2018-08-20T09:38:55.281Z,19.36
2018-08-20T09:41:23.717Z,19.31
2018-08-20T09:43:52.271Z,19.30
2018-08-20T09:46:20.634Z,19.27
2018-08-20T09:48:49.081Z,19.29
2018-08-20T09:51:17.520Z,19.26
2018-08-20T09:53:45.954Z,19.27
2018-08-20T09:56:14.454Z,19.29
2018-08-20T09:58:42.965Z,19.24
2018-08-20T10:01:11.439Z,19.24
2018-08-20T10:03:43.993Z,19.23
2018-08-20T10:06:12.880Z,19.29
2018-08-20T10:08:41.354Z,19.31
2018-08-20T10:11:10.346Z,19.29
2018-08-20T10:13:38.812Z,19.29
2018-08-20T10:16:07.459Z,19.30
2018-08-20T10:18:36.020Z,19.32
2018-08-20T10:21:04.408Z,19.36
2018-08-20T10:23:32.870Z,19.43
2018-08-20T10:26:01.360Z,19.46
2018-08-20T10:28:29.760Z,19.48
2018-08-20T10:30:58.224Z,19.53
2018-08-20T10:33:26.744Z,19.57
2018-08-20T10:35:55.201Z,19.57
2018-08-20T10:38:23.661Z,19.51
2018-08-20T10:40:52.145Z,19.53
2018-08-20T10:43:20.579Z,19.57
2018-08-20T10:45:54.428Z,19.57
2018-08-20T10:48:22.924Z,19.59
2018-08-20T10:50:51.416Z,19.63
2018-08-20T10:53:19.764Z,19.64
2018-08-20T10:55:48.236Z,19.68
2018-08-20T10:58:16.743Z,19.76
2018-08-20T11:00:45.154Z,19.87
2018-08-20T11:03:13.788Z,19.88
2018-08-20T11:05:42.265Z,19.61
2018-08-20T11:08:10.761Z,19.98
2018-08-20T11:10:39.279Z,20.04
2018-08-20T11:13:07.723Z,20.10
2018-08-20T11:15:36.104Z,20.14
2018-08-20T11:18:04.622Z,20.19
2018-08-20T11:20:33.044Z,20.27
2018-08-20T11:23:01.462Z,20.41
2018-08-20T11:25:29.871Z,20.49
2018-08-20T11:27:58.281Z,20.56
2018-08-20T11:30:26.777Z,20.57
2018-08-20T11:32:55.224Z,20.66
2018-08-20T11:35:23.649Z,20.70
2018-08-20T11:37:52.102Z,20.71
2018-08-20T11:40:20.565Z,20.72
2018-08-20T11:42:49.059Z,20.81
2018-08-20T11:45:17.501Z,20.90
2018-08-20T11:47:45.929Z,20.99
2018-08-20T11:50:14.361Z,21.01
2018-08-20T11:52:42.770Z,21.09
2018-08-20T11:55:11.175Z,21.24
2018-08-20T11:57:39.604Z,21.37
2018-08-20T12:00:09.554Z,21.53
2018-08-20T12:02:38.068Z,21.66
2018-08-20T12:05:07.612Z,21.79
2018-08-20T12:07:36.165Z,21.88
2018-08-20T12:10:04.821Z,21.96
2018-08-20T12:12:33.829Z,21.99
2018-08-20T12:15:02.229Z,21.95
2018-08-20T12:17:30.647Z,21.84
2018-08-20T12:19:59.021Z,21.84
2018-08-20T12:22:27.438Z,21.83
2018-08-20T12:24:55.776Z,21.85
2018-08-20T12:27:24.191Z,21.90
2018-08-20T12:29:53.477Z,21.85
2018-08-20T12:32:21.980Z,21.81
2018-08-20T12:34:50.392Z,21.80
2018-08-20T12:37:18.786Z,21.72
2018-08-20T12:39:47.284Z,21.78
2018-08-20T12:42:15.643Z,21.90
2018-08-20T12:44:44.041Z,21.98
2018-08-20T12:47:12.536Z,22.02
2018-08-20T12:49:41.013Z,22.02
2018-08-20T12:52:09.805Z,22.06
2018-08-20T12:54:38.273Z,22.17
2018-08-20T12:57:06.780Z,22.20
2018-08-20T12:59:35.183Z,22.19
2018-08-20T13:02:03.636Z,22.13
2018-08-20T13:04:32.073Z,22.09
2018-08-20T13:07:00.548Z,21.99
2018-08-20T13:09:28.936Z,21.98
2018-08-20T13:11:57.345Z,21.96
2018-08-20T13:14:25.767Z,21.97
2018-08-20T13:16:54.187Z,22.00
2018-08-20T13:19:23.376Z,22.00
2018-08-20T13:21:51.823Z,21.97
2018-08-20T13:24:20.271Z,21.92
2018-08-20T13:26:48.715Z,21.85
2018-08-20T13:29:17.185Z,21.79
2018-08-20T13:31:45.562Z,21.71
2018-08-20T13:34:14.001Z,21.53
2018-08-20T13:36:42.467Z,21.23
2018-08-20T13:39:10.948Z,21.06
2018-08-20T13:41:39.411Z,20.94
2018-08-20T13:44:07.970Z,20.91
2018-08-20T13:46:36.396Z,20.82
2018-08-20T13:49:04.868Z,20.77
2018-08-20T13:51:33.300Z,20.67
2018-08-20T13:54:01.713Z,20.67
2018-08-20T13:56:30.134Z,20.67
2018-08-20T13:58:58.588Z,20.67
2018-08-20T14:01:27.042Z,20.78
2018-08-20T14:03:55.972Z,20.83
2018-08-20T14:06:24.448Z,20.89
2018-08-20T14:08:52.928Z,20.98
2018-08-20T14:11:21.405Z,21.00
2018-08-20T14:13:49.819Z,20.94
2018-08-20T14:16:18.241Z,20.97
2018-08-20T14:18:46.671Z,21.02
2018-08-20T14:21:16.750Z,21.15
2018-08-20T14:23:46.698Z,21.24
2018-08-20T14:26:15.227Z,21.20
2018-08-20T14:28:43.770Z,21.21
2018-08-20T14:31:12.295Z,21.24
2018-08-20T14:33:40.739Z,21.24
2018-08-20T14:36:09.828Z,21.21
2018-08-20T14:38:38.309Z,21.22
2018-08-20T14:41:06.952Z,21.20
2018-08-20T14:43:35.456Z,21.19
2018-08-20T14:46:09.119Z,21.21
2018-08-20T14:48:37.571Z,21.21
2018-08-20T14:51:06.116Z,21.20
2018-08-20T14:53:34.648Z,21.16
2018-08-20T14:56:03.047Z,21.14
2018-08-20T14:58:31.474Z,21.12
2018-08-20T15:00:59.970Z,21.11
2018-08-20T15:03:28.987Z,21.10
2018-08-20T15:05:57.361Z,21.11
2018-08-20T15:08:25.796Z,21.13
2018-08-20T15:10:54.283Z,21.11
2018-08-20T15:13:22.753Z,21.11
2018-08-20T15:15:51.212Z,21.11
2018-08-20T15:18:19.651Z,21.09
2018-08-20T15:20:48.128Z,21.09
2018-08-20T15:23:16.523Z,21.08
2018-08-20T15:25:44.993Z,21.08
2018-08-20T15:28:13.386Z,21.09
2018-08-20T15:30:41.860Z,21.10
2018-08-20T15:33:10.299Z,21.10
2018-08-20T15:35:38.749Z,21.14
2018-08-20T15:38:07.316Z,21.15
2018-08-20T15:40:35.761Z,21.16
2018-08-20T15:43:04.160Z,21.20
2018-08-20T15:45:32.590Z,21.24
2018-08-20T15:48:01.046Z,21.27
2018-08-20T15:50:29.478Z,21.30
2018-08-20T15:52:57.970Z,21.33
2018-08-20T15:55:26.317Z,21.34
2018-08-20T15:57:54.769Z,21.35
2018-08-20T16:00:23.212Z,21.37
2018-08-20T16:02:51.673Z,21.39
2018-08-20T16:05:20.123Z,21.39
2018-08-20T16:07:48.583Z,21.38
2018-08-20T16:10:16.989Z,21.38
2018-08-20T16:12:45.424Z,21.38
2018-08-20T16:15:13.853Z,21.36
2018-08-20T16:17:42.276Z,21.37
2018-08-20T16:20:10.768Z,21.38
2018-08-20T16:22:39.216Z,21.38
2018-08-20T16:25:08.274Z,21.38
2018-08-20T16:27:36.691Z,21.39
2018-08-20T16:30:08.087Z,21.37
2018-08-20T16:32:36.678Z,21.35
2018-08-20T16:35:05.300Z,21.34
2018-08-20T16:37:33.763Z,21.31
2018-08-20T16:40:02.227Z,21.29
2018-08-20T16:42:30.717Z,21.27
2018-08-20T16:44:59.402Z,21.25
2018-08-20T16:47:27.870Z,21.23
2018-08-20T16:49:56.910Z,21.23
2018-08-20T16:52:25.384Z,21.20
2018-08-20T16:54:53.871Z,21.19
2018-08-20T16:57:22.264Z,21.17
2018-08-20T16:59:50.738Z,21.15
2018-08-20T17:02:25.181Z,21.15
2018-08-20T17:04:53.841Z,21.13
2018-08-20T17:09:49.703Z,21.13
2018-08-20T17:12:18.148Z,21.14
2018-08-20T17:14:46.597Z,21.14
2018-08-20T17:17:15.056Z,21.11
2018-08-20T17:19:45.154Z,21.11
2018-08-20T17:22:13.698Z,21.08
2018-08-20T17:24:42.240Z,21.07
2018-08-20T17:27:11.387Z,21.06
2018-08-20T17:29:39.811Z,21.05
2018-08-20T17:32:09.490Z,21.03
2018-08-20T17:34:40.338Z,21.01
2018-08-20T17:37:08.904Z,21.00
2018-08-20T17:39:51.441Z,21.00
2018-08-20T17:42:19.953Z,20.99
2018-08-20T17:44:48.998Z,20.99
2018-08-20T17:47:22.712Z,20.98
2018-08-20T17:49:52.098Z,20.96
2018-08-20T17:52:21.324Z,20.96
2018-08-20T17:54:49.829Z,20.97
2018-08-20T17:57:18.316Z,20.95
2018-08-20T17:59:46.891Z,20.94
2018-08-20T18:02:22.650Z,20.95
2018-08-20T18:04:51.483Z,20.93
2018-08-20T18:07:19.894Z,20.95
2018-08-20T18:09:48.337Z,20.91
2018-08-20T18:12:16.822Z,20.88
2018-08-20T18:14:47.802Z,20.88
2018-08-20T18:17:16.799Z,20.87
2018-08-20T18:19:45.162Z,20.88
2018-08-20T18:22:13.621Z,20.88
2018-08-20T18:24:42.252Z,20.87
2018-08-20T18:27:11.405Z,20.84
2018-08-20T18:29:39.879Z,20.84
2018-08-20T18:32:09.083Z,20.81
2018-08-20T18:34:37.570Z,20.79
2018-08-20T18:37:06.048Z,20.77
2018-08-20T18:39:34.521Z,20.74
2018-08-20T18:42:04.823Z,20.73
2018-08-20T18:44:33.394Z,20.71
2018-08-20T18:47:01.925Z,20.70
2018-08-20T18:49:30.462Z,20.67
2018-08-20T18:52:05.137Z,20.66
2018-08-20T18:54:38.207Z,20.65
2018-08-20T18:57:07.053Z,20.64
2018-08-20T18:59:37.233Z,20.63
2018-08-20T19:02:06.230Z,20.62
2018-08-20T19:04:47.842Z,20.61
2018-08-20T19:07:16.736Z,20.58
2018-08-20T19:09:48.357Z,20.56
2018-08-20T19:12:16.899Z,20.55
2018-08-20T19:14:45.373Z,20.52
2018-08-20T19:17:19.327Z,20.51
2018-08-20T19:19:48.883Z,20.49
2018-08-20T19:22:22.678Z,20.48
2018-08-20T19:24:51.157Z,20.45
2018-08-20T19:27:19.693Z,20.47
2018-08-20T19:29:48.185Z,20.46
2018-08-20T19:32:16.685Z,20.46
2018-08-20T19:34:45.173Z,20.45
2018-08-20T19:37:13.582Z,20.44
2018-08-20T19:39:42.052Z,20.42
2018-08-20T19:42:14.106Z,20.41
2018-08-20T19:44:43.033Z,20.39
2018-08-20T19:49:53.692Z,20.36
2018-08-20T19:52:22.130Z,20.36
2018-08-20T19:54:54.744Z,20.33
2018-08-20T19:57:23.192Z,20.33
2018-08-20T19:59:52.499Z,20.31
2018-08-20T20:02:21.011Z,20.28
2018-08-20T20:04:49.437Z,20.27
2018-08-20T20:07:17.900Z,20.28
2018-08-20T20:09:46.294Z,20.29
2018-08-20T20:12:14.749Z,20.27
2018-08-20T20:14:47.212Z,20.24
2018-08-20T20:17:15.691Z,20.20
2018-08-20T20:19:44.288Z,20.20
2018-08-20T20:22:14.692Z,20.22
2018-08-20T20:24:43.131Z,20.21
2018-08-20T20:27:11.612Z,20.21
2018-08-20T20:29:40.145Z,20.21
2018-08-20T20:32:08.656Z,20.20
2018-08-20T20:34:37.185Z,20.22
2018-08-20T20:37:05.662Z,20.22
2018-08-20T20:39:34.102Z,20.22
2018-08-20T20:42:02.580Z,20.09
2018-08-20T20:44:31.029Z,20.23
2018-08-20T20:46:59.470Z,20.18
2018-08-20T20:49:27.843Z,20.12
2018-08-20T20:51:56.239Z,20.10
2018-08-20T20:54:24.672Z,20.08
2018-08-20T20:56:53.094Z,20.08
2018-08-20T20:59:21.568Z,20.06
2018-08-20T21:01:50.156Z,20.05
2018-08-20T21:04:18.611Z,20.05
2018-08-20T21:06:47.925Z,20.04
2018-08-20T21:09:16.573Z,20.04
2018-08-20T21:11:44.998Z,20.01
2018-08-20T21:14:13.607Z,19.99
2018-08-20T21:16:41.936Z,19.99
2018-08-20T21:19:10.440Z,19.97
2018-08-20T21:21:38.901Z,19.97
2018-08-20T21:24:08.047Z,19.91
2018-08-20T21:26:36.517Z,19.85
2018-08-20T21:29:04.989Z,19.86
2018-08-20T21:31:43.272Z,19.88
2018-08-20T21:34:11.742Z,19.89
2018-08-20T21:36:40.188Z,19.88
2018-08-20T21:39:09.720Z,19.89
2018-08-20T21:41:38.176Z,19.87
2018-08-20T21:44:06.780Z,19.88
2018-08-20T21:46:35.192Z,19.86
2018-08-20T21:49:03.658Z,19.84
2018-08-20T21:51:37.392Z,19.83
2018-08-20T21:54:05.850Z,19.84
2018-08-20T21:56:45.486Z,19.86
2018-08-20T21:59:13.916Z,19.86
2018-08-20T22:01:42.376Z,19.83
2018-08-20T22:04:16.041Z,19.83
2018-08-20T22:06:44.471Z,19.80
2018-08-20T22:09:12.876Z,19.79
2018-08-20T22:11:41.492Z,19.77
2018-08-20T22:14:09.964Z,19.76
2018-08-20T22:16:38.397Z,19.76
2018-08-20T22:19:06.848Z,19.75
2018-08-20T22:21:35.252Z,19.73
2018-08-20T22:24:04.230Z,19.71
2018-08-20T22:26:33.232Z,19.66
2018-08-20T22:29:01.687Z,19.63
2018-08-20T22:31:30.136Z,19.59
2018-08-20T22:34:03.731Z,19.58
2018-08-20T22:36:32.759Z,19.58
2018-08-20T22:39:02.381Z,19.62
2018-08-20T22:41:31.677Z,19.65
2018-08-20T22:44:00.094Z,19.66
2018-08-20T22:46:28.518Z,19.64
2018-08-20T22:48:58.327Z,19.62
2018-08-20T22:51:28.074Z,19.60
2018-08-20T22:54:00.297Z,19.58
2018-08-20T22:56:31.057Z,19.57
2018-08-20T22:59:10.181Z,19.55
2018-08-20T23:01:38.649Z,19.53
2018-08-20T23:04:07.519Z,19.52
2018-08-20T23:06:35.937Z,19.50
2018-08-20T23:09:20.788Z,19.52
2018-08-20T23:11:49.313Z,19.52
2018-08-20T23:14:17.761Z,19.48
2018-08-20T23:16:49.413Z,19.46
2018-08-20T23:19:17.908Z,19.43
2018-08-20T23:21:47.357Z,19.44
2018-08-20T23:24:17.342Z,19.44
2018-08-20T23:26:45.780Z,19.43
2018-08-20T23:29:18.364Z,19.42
2018-08-20T23:31:46.793Z,19.46
2018-08-20T23:34:16.201Z,19.47
2018-08-20T23:36:44.628Z,19.47
2018-08-20T23:39:14.312Z,19.40
2018-08-20T23:41:42.792Z,19.37
2018-08-20T23:44:11.352Z,19.32
2018-08-20T23:46:41.405Z,19.30
2018-08-20T23:49:09.841Z,19.28
2018-08-20T23:51:38.384Z,19.31
2018-08-20T23:54:06.861Z,19.27
2018-08-20T23:56:35.321Z,19.32
2018-08-20T23:59:03.839Z,19.29
